Greenbrae, Nevada
Current Conditions -  °F | °C
As of 7:55 AM on Monday 22 Dec 2014 (Local Time) from KRNO Reporting Station
Few Clouds Few Clouds  
Wind Chill: 34°   Ceiling: Unl
Heat Index: 34°   Visibility: 10mi
Dew Point: 32°   Wind: 3mph
Humidity: 92%   Direction: 170°S
Pressure: 30.3"   Gusts: NA
Location:  39.5386°N, 119.749°W
Report Text: KRNO 221555Z 17003KT 10SM FEW070 FEW140 01/00 A3030 RMK AO2 SLP254 T00110000
Loading
Personal Weather Stations






























Interactive Weather Map New forecast layout! Learn more

10-Day Weather Forecast

Advertisements
Track Severe Weather on mobile